Aérodrome :
LOGIN :

S'inscrire | Disclaimer

   EN    FR    IT 

 










Légende :    VFR   VFR Marginal   IFR   IFR Intensif   IFR Très Intensif
Visi : 
Plafond : 
>= 8 km
>= 3000ft
5 à 8 km
1000 à 3000 ft
1500m à 5 km
500 à 1000 ft
800 à 1500m
200 à 500 ft
< 800m
< 200 ft
Symboles :   Orages  Brouillard  Fortes neiges  Fortes précipitations  Vent > 20 kt
SIGMETs :   Divers  Orages  Givrage  Turbulence  Onde Orograph.  Cendres Volcan.







- Altitude de l'aérodrome : 1106 ft
- Voir les cartes d'approche


LFSO - Nancy / Ochey

METARs EXPIRÉS :
  • 241430Z AUTO 29008KT 240V340 CAVOK 26/11 Q1017
  • 241400Z AUTO 26010KT 200V300 CAVOK 26/11 Q1017
  • 241330Z AUTO 25010KT 190V330 CAVOK 26/10 Q1018
  • 241300Z AUTO 23009KT 170V280 CAVOK 26/10 Q1018
  • 241230Z AUTO 25010KT 200V300 9999 NCD 25/10 Q1018
  • 241200Z AUTO 26009KT 200V300 9999 NCD 25/10 Q1019

Prévision TAF périmée.
Pas de NOTAMs connus pour ce terrain.
1 SIGMET publié pour la FIR Reims (LFEE) :
 
Turbulence forte
LFEE SIGMET 1 VALID 250000/250400 LFPW
LFEE REIMS FIR/UIR SEV TURB FCST WI N4645 E00445 - N4730 E00415 - N4830 E00530 - N4900 E00445 - N4930 E00600 - N4915 E00715 - N4645 E00530 FL300/370 MOV SE 15KT NC=



MET'MAP, la Météo Aéronautique d'un coup d'oeil ! - Copyright ORBIFLY Décembre 2007 - Disclaimer

ORBIFLY MET'MAP TEAM :

Programmation & Développement : Alexandra Zaïnal
Conception & Développement : Baudouin d'Aumeries
Co-Programmation & Développement : Marc-Olivier Méhu
Soutien technique & logistique : Manuel Goepfert

Contact : metmap@orbifly.com




SOURCES & CREDITS :

   NOAA